createdAt,value
2022-11-29T00:00:48.674Z,0.00
2022-11-29T00:01:48.694Z,0.00
2022-11-29T00:02:48.731Z,0.00
2022-11-29T00:03:48.607Z,0.00
2022-11-29T00:04:48.584Z,0.00
2022-11-29T00:05:48.561Z,0.00
2022-11-29T00:06:48.534Z,0.00
2022-11-29T00:07:48.570Z,0.00
2022-11-29T00:08:48.481Z,0.00
2022-11-29T00:09:48.480Z,0.00
2022-11-29T00:10:48.432Z,0.00
2022-11-29T00:11:48.411Z,0.00
2022-11-29T00:12:48.381Z,0.00
2022-11-29T00:13:48.362Z,0.00
2022-11-29T00:14:48.333Z,0.00
2022-11-29T00:15:48.309Z,0.00
2022-11-29T00:16:48.356Z,0.00
2022-11-29T00:17:48.260Z,0.00
2022-11-29T00:18:48.240Z,0.00
2022-11-29T00:19:48.228Z,0.00
2022-11-29T00:20:48.182Z,0.00
2022-11-29T00:21:48.158Z,0.00
2022-11-29T00:22:48.135Z,0.00
2022-11-29T00:23:48.115Z,0.00
2022-11-29T00:24:48.086Z,0.00
2022-11-29T00:25:48.058Z,0.00
2022-11-29T00:26:48.053Z,0.00
2022-11-29T00:27:48.014Z,0.00
2022-11-29T00:28:47.982Z,0.00
2022-11-29T00:29:47.967Z,0.00
2022-11-29T00:30:47.996Z,0.00
2022-11-29T00:31:47.913Z,0.00
2022-11-29T00:32:47.886Z,0.00
2022-11-29T00:33:47.862Z,0.00
2022-11-29T00:34:47.835Z,0.00
2022-11-29T00:35:47.813Z,0.00
2022-11-29T00:36:47.786Z,0.00
2022-11-29T00:37:47.760Z,0.00
2022-11-29T00:38:47.737Z,0.00
2022-11-29T00:39:47.715Z,0.00
2022-11-29T00:40:47.684Z,0.00
2022-11-29T00:41:47.665Z,0.00
2022-11-29T00:42:47.631Z,0.00
2022-11-29T00:43:47.611Z,0.00
2022-11-29T00:44:47.587Z,0.00
2022-11-29T00:45:47.612Z,0.00
2022-11-29T00:46:47.542Z,0.00
2022-11-29T00:47:47.517Z,0.00
2022-11-29T00:48:47.490Z,0.00
2022-11-29T00:49:47.464Z,0.00
2022-11-29T00:50:47.444Z,0.00
2022-11-29T00:51:47.413Z,0.00
2022-11-29T00:52:47.386Z,0.00
2022-11-29T00:53:47.359Z,0.00
2022-11-29T00:54:47.359Z,0.00
2022-11-29T00:55:47.312Z,0.00
2022-11-29T00:56:47.292Z,0.00
2022-11-29T00:57:47.261Z,0.00
2022-11-29T00:58:47.242Z,0.00
2022-11-29T00:59:47.211Z,0.00
2022-11-29T01:00:47.194Z,0.00
2022-11-29T01:01:47.245Z,0.00
2022-11-29T01:02:47.209Z,0.00
2022-11-29T01:03:47.109Z,0.00
2022-11-29T01:04:47.422Z,0.00
2022-11-29T01:05:47.063Z,0.00
2022-11-29T01:06:47.044Z,0.00
2022-11-29T01:07:47.067Z,0.00
2022-11-29T01:08:46.990Z,0.00
2022-11-29T01:09:46.967Z,0.00
2022-11-29T01:10:46.955Z,0.00
2022-11-29T01:11:46.915Z,0.00
2022-11-29T01:12:46.896Z,0.00
2022-11-29T01:13:46.864Z,0.00
2022-11-29T01:14:47.005Z,0.00
2022-11-29T01:15:46.816Z,0.00
2022-11-29T01:16:46.839Z,0.00
2022-11-29T01:17:46.761Z,0.00
2022-11-29T01:18:46.748Z,0.00
2022-11-29T01:19:50.755Z,0.00
2022-11-29T01:20:46.725Z,0.00
2022-11-29T01:21:46.665Z,0.00
2022-11-29T01:22:46.643Z,0.00
2022-11-29T01:23:46.614Z,0.00
2022-11-29T01:24:46.812Z,0.00
2022-11-29T01:25:46.568Z,0.00
2022-11-29T01:26:46.559Z,0.00
2022-11-29T01:27:46.512Z,0.00
2022-11-29T01:28:46.493Z,0.00
2022-11-29T01:29:46.464Z,0.00
2022-11-29T01:30:46.560Z,0.00
2022-11-29T01:31:46.415Z,0.00
2022-11-29T01:32:46.396Z,0.00
2022-11-29T01:33:46.365Z,0.00
2022-11-29T01:34:46.636Z,0.00
2022-11-29T01:35:46.315Z,0.00
2022-11-29T01:36:46.294Z,0.00
2022-11-29T01:37:46.266Z,0.00
2022-11-29T01:38:46.245Z,0.00
2022-11-29T01:39:46.218Z,0.00
2022-11-29T01:40:46.204Z,0.00
2022-11-29T01:41:46.169Z,0.00
2022-11-29T01:42:46.148Z,0.00
2022-11-29T01:43:46.118Z,0.00
2022-11-29T01:44:46.369Z,0.00
2022-11-29T01:45:46.113Z,0.00
2022-11-29T01:46:46.051Z,0.00
2022-11-29T01:47:46.023Z,0.00
2022-11-29T01:48:45.997Z,0.00
2022-11-29T01:49:45.980Z,0.00
2022-11-29T01:50:45.978Z,0.00
2022-11-29T01:51:45.918Z,0.00
2022-11-29T01:52:45.896Z,0.00
2022-11-29T01:53:45.867Z,0.00
2022-11-29T01:54:46.092Z,0.00
2022-11-29T01:55:45.886Z,0.00
2022-11-29T01:56:45.798Z,0.00
2022-11-29T01:57:45.770Z,0.00
2022-11-29T01:58:45.746Z,0.00
2022-11-29T01:59:45.718Z,0.00
2022-11-29T02:00:45.696Z,0.00
2022-11-29T02:01:45.726Z,0.00
2022-11-29T02:02:45.708Z,0.00
2022-11-29T02:03:45.620Z,0.00
2022-11-29T02:04:45.864Z,0.00
2022-11-29T02:05:45.573Z,0.00
2022-11-29T02:06:45.550Z,0.00
2022-11-29T02:07:45.591Z,0.00
2022-11-29T02:08:45.499Z,0.00
2022-11-29T02:09:45.477Z,0.00
2022-11-29T02:10:45.451Z,0.00
2022-11-29T02:11:45.417Z,0.00
2022-11-29T02:12:45.398Z,0.00
2022-11-29T02:13:45.367Z,0.00
2022-11-29T02:14:45.561Z,0.00
2022-11-29T02:15:45.395Z,0.00
2022-11-29T02:16:45.300Z,0.00
2022-11-29T02:17:45.277Z,0.00
2022-11-29T02:18:45.250Z,0.00
2022-11-29T02:19:45.222Z,0.00
2022-11-29T02:20:45.199Z,0.00
2022-11-29T02:21:45.178Z,0.00
2022-11-29T02:22:45.152Z,0.00
2022-11-29T02:23:45.122Z,0.00
2022-11-29T02:24:45.373Z,0.00
2022-11-29T02:25:45.075Z,0.00
2022-11-29T02:26:45.052Z,0.00
2022-11-29T02:27:45.041Z,0.00
2022-11-29T02:28:45.008Z,0.00
2022-11-29T02:29:44.974Z,0.00
2022-11-29T02:30:44.973Z,0.00
2022-11-29T02:31:44.924Z,0.00
2022-11-29T02:32:44.905Z,0.00
2022-11-29T02:33:44.875Z,0.00
2022-11-29T02:34:45.193Z,0.00
2022-11-29T02:35:44.821Z,0.00
2022-11-29T02:36:44.802Z,0.00
2022-11-29T02:37:44.776Z,0.00
2022-11-29T02:38:44.755Z,0.00
2022-11-29T02:39:44.723Z,0.00
2022-11-29T02:40:44.703Z,0.00
2022-11-29T02:41:44.676Z,0.00
2022-11-29T02:42:44.657Z,0.00
2022-11-29T02:43:44.626Z,0.00
2022-11-29T02:44:44.995Z,0.00
2022-11-29T02:45:44.592Z,0.00
2022-11-29T02:46:44.554Z,0.00
2022-11-29T02:47:44.527Z,0.00
2022-11-29T02:48:44.504Z,0.00
2022-11-29T02:49:44.484Z,0.00
2022-11-29T02:50:44.457Z,0.00
2022-11-29T02:51:44.427Z,0.00
2022-11-29T02:52:44.404Z,0.00
2022-11-29T02:53:44.387Z,0.00
2022-11-29T02:54:44.657Z,0.00
2022-11-29T02:55:44.323Z,0.00
2022-11-29T02:56:44.306Z,0.00
2022-11-29T02:57:44.304Z,0.00
2022-11-29T02:58:44.257Z,0.00
2022-11-29T02:59:44.226Z,0.00
2022-11-29T03:00:44.204Z,0.00
2022-11-29T03:01:44.200Z,0.00
2022-11-29T03:02:44.205Z,0.00
2022-11-29T03:03:44.133Z,0.00
2022-11-29T03:04:44.357Z,0.00
2022-11-29T03:05:44.081Z,0.00
2022-11-29T03:06:44.057Z,0.00
2022-11-29T03:07:44.080Z,0.00
2022-11-29T03:08:44.012Z,0.00
2022-11-29T03:09:43.981Z,0.00
2022-11-29T03:10:43.961Z,0.00
2022-11-29T03:11:43.932Z,0.00
2022-11-29T03:12:43.907Z,0.00
2022-11-29T03:13:43.892Z,0.00
2022-11-29T03:14:44.076Z,0.00
2022-11-29T03:15:43.888Z,0.00
2022-11-29T03:16:43.832Z,0.00
2022-11-29T03:17:43.785Z,0.00
2022-11-29T03:18:43.761Z,0.00
2022-11-29T03:19:43.727Z,0.00
2022-11-29T03:20:43.709Z,0.00
2022-11-29T03:21:43.683Z,0.00
2022-11-29T03:22:43.660Z,0.00
2022-11-29T03:23:43.632Z,0.00
2022-11-29T03:24:43.897Z,0.00
2022-11-29T03:25:43.594Z,0.00
2022-11-29T03:26:43.560Z,0.00
2022-11-29T03:27:43.533Z,0.00
2022-11-29T03:28:43.515Z,0.00
2022-11-29T03:29:43.483Z,0.00
2022-11-29T03:30:43.512Z,0.00
2022-11-29T03:31:43.431Z,0.00
2022-11-29T03:32:43.412Z,0.00
2022-11-29T03:33:43.382Z,0.00
2022-11-29T03:34:43.836Z,0.00
2022-11-29T03:35:43.331Z,0.00
2022-11-29T03:36:43.317Z,0.00
2022-11-29T03:37:43.278Z,0.00
2022-11-29T03:38:43.266Z,0.00
2022-11-29T03:39:43.234Z,0.00
2022-11-29T03:40:43.217Z,0.00
2022-11-29T03:41:43.186Z,0.00
2022-11-29T03:42:43.166Z,0.00
2022-11-29T03:43:43.134Z,0.00
2022-11-29T03:44:43.398Z,0.00
2022-11-29T03:45:43.080Z,0.00
2022-11-29T03:46:43.104Z,0.00
2022-11-29T03:47:43.034Z,0.00
2022-11-29T03:48:43.013Z,0.00
2022-11-29T03:49:42.989Z,0.00
2022-11-29T03:50:42.963Z,0.00
2022-11-29T03:51:42.931Z,0.00
2022-11-29T03:52:42.913Z,0.00
2022-11-29T03:53:42.886Z,0.00
2022-11-29T03:54:43.344Z,0.00
2022-11-29T03:55:42.834Z,0.00
2022-11-29T03:56:42.814Z,0.00
2022-11-29T03:57:42.789Z,0.00
2022-11-29T03:58:42.767Z,0.00
2022-11-29T03:59:42.731Z,0.00
2022-11-29T04:00:42.717Z,0.00
2022-11-29T04:01:42.744Z,0.00
2022-11-29T04:02:42.707Z,0.00
2022-11-29T04:03:42.637Z,0.00
2022-11-29T04:04:42.930Z,0.00
2022-11-29T04:05:42.586Z,0.00
2022-11-29T04:06:42.562Z,0.00
2022-11-29T04:07:42.580Z,0.00
2022-11-29T04:08:42.536Z,0.00
2022-11-29T04:09:42.487Z,0.00
2022-11-29T04:10:42.467Z,0.00
2022-11-29T04:11:42.442Z,0.00
2022-11-29T04:12:42.413Z,0.00
2022-11-29T04:13:42.392Z,0.00
2022-11-29T04:14:42.617Z,0.00
2022-11-29T04:15:42.416Z,0.00
2022-11-29T04:16:42.318Z,0.00
2022-11-29T04:17:42.289Z,0.00
2022-11-29T04:18:42.286Z,0.00
2022-11-29T04:19:42.237Z,0.00
2022-11-29T04:20:46.810Z,0.00
2022-11-29T04:21:42.187Z,0.00
2022-11-29T04:22:42.167Z,0.00
2022-11-29T04:23:42.140Z,0.00
2022-11-29T04:24:42.333Z,0.00
2022-11-29T04:25:42.092Z,0.00
2022-11-29T04:26:42.069Z,0.00
2022-11-29T04:27:42.039Z,0.00
2022-11-29T04:28:42.013Z,0.00
2022-11-29T04:29:41.988Z,0.00
2022-11-29T04:30:41.967Z,0.00
2022-11-29T04:31:41.944Z,0.00
2022-11-29T04:32:41.919Z,0.00
2022-11-29T04:33:41.885Z,0.00
2022-11-29T04:34:42.499Z,0.00
2022-11-29T04:35:41.852Z,0.00
2022-11-29T04:36:41.816Z,0.00
2022-11-29T04:37:41.790Z,0.00
2022-11-29T04:38:41.794Z,0.00
2022-11-29T04:39:41.737Z,0.00
2022-11-29T04:40:41.718Z,0.00
2022-11-29T04:41:41.688Z,0.00
2022-11-29T04:42:41.666Z,0.00
2022-11-29T04:43:41.637Z,0.00
2022-11-29T04:44:41.778Z,0.00
2022-11-29T04:45:41.626Z,0.00
2022-11-29T04:46:41.614Z,0.00
2022-11-29T04:47:41.540Z,0.00
2022-11-29T04:48:41.518Z,0.00
2022-11-29T04:49:41.494Z,0.00
2022-11-29T04:50:41.473Z,0.00
2022-11-29T04:51:41.439Z,0.00
2022-11-29T04:52:41.419Z,0.00
2022-11-29T04:53:41.391Z,0.00
2022-11-29T04:54:41.373Z,0.00
2022-11-29T04:55:41.411Z,0.00
2022-11-29T04:56:41.322Z,0.00
2022-11-29T04:57:41.302Z,0.00
2022-11-29T04:58:41.275Z,0.00
2022-11-29T04:59:41.245Z,0.00
2022-11-29T05:00:41.218Z,0.00
2022-11-29T05:01:41.288Z,0.00
2022-11-29T05:02:41.284Z,0.00
2022-11-29T05:03:41.149Z,0.00
2022-11-29T05:04:41.120Z,0.00
2022-11-29T05:05:41.095Z,0.00
2022-11-29T05:06:41.066Z,0.00
2022-11-29T05:07:41.083Z,0.00
2022-11-29T05:08:41.017Z,0.00
2022-11-29T05:09:40.994Z,0.00
2022-11-29T05:10:40.969Z,0.00
2022-11-29T05:11:40.946Z,0.00
2022-11-29T05:12:40.922Z,0.00
2022-11-29T05:13:40.902Z,0.00
2022-11-29T05:14:40.871Z,0.00
2022-11-29T05:15:40.899Z,0.00
2022-11-29T05:16:40.819Z,0.00
2022-11-29T05:17:40.800Z,0.00
2022-11-29T05:18:40.771Z,0.00
2022-11-29T05:19:40.748Z,0.00
2022-11-29T05:20:40.721Z,0.00
2022-11-29T05:21:40.698Z,0.00
2022-11-29T05:22:40.679Z,0.00
2022-11-29T05:23:40.649Z,0.00
2022-11-29T05:24:40.619Z,0.00
2022-11-29T05:25:40.598Z,0.00
2022-11-29T05:26:40.571Z,0.00
2022-11-29T05:27:40.551Z,0.00
2022-11-29T05:28:40.524Z,0.00
2022-11-29T05:29:40.501Z,0.00
2022-11-29T05:30:40.470Z,0.00
2022-11-29T05:31:40.450Z,0.00
2022-11-29T05:32:40.415Z,0.00
2022-11-29T05:33:40.406Z,0.00
2022-11-29T05:34:40.373Z,0.00
2022-11-29T05:35:40.352Z,0.00
2022-11-29T05:36:40.331Z,0.00
2022-11-29T05:37:40.299Z,0.00
2022-11-29T05:38:40.270Z,0.00
2022-11-29T05:39:40.251Z,0.00
2022-11-29T05:40:40.221Z,0.00
2022-11-29T05:41:40.201Z,0.00
2022-11-29T05:42:40.172Z,0.00
2022-11-29T05:43:40.150Z,0.00
2022-11-29T05:44:40.122Z,0.00
2022-11-29T05:45:40.105Z,0.00
2022-11-29T05:46:40.161Z,0.00
2022-11-29T05:47:40.054Z,0.00
2022-11-29T05:48:40.021Z,0.00
2022-11-29T05:49:40.008Z,0.00
2022-11-29T05:50:39.974Z,0.00
2022-11-29T05:51:39.951Z,0.00
2022-11-29T05:52:39.925Z,0.00
2022-11-29T05:53:39.905Z,0.00
2022-11-29T05:54:39.875Z,0.00
2022-11-29T05:55:39.855Z,0.00
2022-11-29T05:56:39.826Z,0.00
2022-11-29T05:57:39.805Z,0.00
2022-11-29T05:58:39.777Z,0.00
2022-11-29T05:59:39.755Z,0.00
2022-11-29T06:00:39.724Z,0.00
2022-11-29T06:01:39.748Z,0.00
2022-11-29T06:02:39.701Z,0.00
2022-11-29T06:03:39.676Z,0.00
2022-11-29T06:04:39.633Z,0.00
2022-11-29T06:05:39.610Z,0.00
2022-11-29T06:06:39.577Z,0.00
2022-11-29T06:07:39.606Z,0.00
2022-11-29T06:08:39.533Z,0.00
2022-11-29T06:09:39.512Z,0.00
2022-11-29T06:10:39.479Z,0.00
2022-11-29T06:11:39.454Z,0.00
2022-11-29T06:12:39.428Z,0.00
2022-11-29T06:13:39.423Z,0.00
2022-11-29T06:14:39.374Z,0.00
2022-11-29T06:15:39.360Z,0.00
2022-11-29T06:16:39.329Z,0.00
2022-11-29T06:17:39.571Z,0.00
2022-11-29T06:18:39.287Z,0.00
2022-11-29T06:19:39.264Z,0.00
2022-11-29T06:20:39.231Z,0.00
2022-11-29T06:21:39.217Z,0.00
2022-11-29T06:22:39.181Z,0.00
2022-11-29T06:23:39.157Z,0.00
2022-11-29T06:24:39.137Z,0.00
2022-11-29T06:25:39.108Z,0.00
2022-11-29T06:26:39.075Z,0.00
2022-11-29T06:27:39.061Z,0.00
2022-11-29T06:28:39.031Z,0.00
2022-11-29T06:29:39.013Z,0.00
2022-11-29T06:30:38.976Z,0.00
2022-11-29T06:31:38.982Z,0.00
2022-11-29T06:32:38.930Z,0.00
2022-11-29T06:33:38.909Z,0.00
2022-11-29T06:34:38.893Z,0.00
2022-11-29T06:35:38.856Z,0.00
2022-11-29T06:36:38.828Z,0.00
2022-11-29T06:37:38.820Z,0.00
2022-11-29T06:38:38.780Z,0.00
2022-11-29T06:39:38.762Z,0.00
2022-11-29T06:40:38.732Z,0.00
2022-11-29T06:41:38.709Z,0.00
2022-11-29T06:42:38.683Z,0.00
2022-11-29T06:43:38.657Z,0.00
2022-11-29T06:44:38.679Z,0.00
2022-11-29T06:45:38.609Z,0.00
2022-11-29T06:46:38.634Z,0.00
2022-11-29T06:47:38.559Z,0.00
2022-11-29T06:48:38.530Z,0.00
2022-11-29T06:49:38.514Z,0.00
2022-11-29T06:50:38.480Z,0.00
2022-11-29T06:51:38.461Z,0.00
2022-11-29T06:52:38.440Z,0.00
2022-11-29T06:53:38.415Z,0.00
2022-11-29T06:54:38.398Z,0.00
2022-11-29T06:55:38.376Z,0.00
2022-11-29T06:56:40.769Z,0.00
2022-11-29T06:57:38.313Z,5.63
2022-11-29T06:58:38.284Z,5.63
2022-11-29T06:59:38.265Z,5.63
2022-11-29T07:00:38.295Z,5.63
2022-11-29T07:01:38.239Z,5.63
2022-11-29T07:02:38.272Z,5.63
2022-11-29T07:03:38.161Z,5.63
2022-11-29T07:04:44.097Z,5.63
2022-11-29T07:05:38.110Z,5.63
2022-11-29T07:06:38.085Z,5.63
2022-11-29T07:07:38.101Z,11.25
2022-11-29T07:08:38.033Z,11.25
2022-11-29T07:09:38.053Z,11.25
2022-11-29T07:10:37.986Z,11.25
2022-11-29T07:11:38.007Z,11.25
2022-11-29T07:12:37.934Z,16.88
2022-11-29T07:13:37.932Z,16.88
2022-11-29T07:14:37.917Z,16.88
2022-11-29T07:15:37.888Z,22.50
2022-11-29T07:16:37.884Z,22.50
2022-11-29T07:17:37.819Z,22.50
2022-11-29T07:18:37.787Z,28.13
2022-11-29T07:19:37.779Z,28.13
2022-11-29T07:20:37.736Z,28.13
2022-11-29T07:21:37.743Z,28.13
2022-11-29T07:22:37.691Z,33.75
2022-11-29T07:23:37.672Z,33.75
2022-11-29T07:24:37.638Z,33.75
2022-11-29T07:25:37.632Z,33.75
2022-11-29T07:26:37.586Z,33.75
2022-11-29T07:27:37.566Z,33.75
2022-11-29T07:28:37.534Z,33.75
2022-11-29T07:29:37.516Z,33.75
2022-11-29T07:30:37.488Z,33.75
2022-11-29T07:31:37.528Z,33.75
2022-11-29T07:32:37.438Z,33.75
2022-11-29T07:33:37.414Z,33.75
2022-11-29T07:34:37.401Z,33.75
2022-11-29T07:35:37.366Z,33.75
2022-11-29T07:36:37.368Z,33.75
2022-11-29T07:37:37.317Z,39.38
2022-11-29T07:38:37.287Z,39.38
2022-11-29T07:39:37.270Z,39.38
2022-11-29T07:40:37.874Z,39.38
2022-11-29T07:41:37.222Z,39.38
2022-11-29T07:42:37.186Z,39.38
2022-11-29T07:43:37.166Z,39.38
2022-11-29T07:44:37.141Z,39.38
2022-11-29T07:45:37.116Z,45.00
2022-11-29T07:46:37.118Z,45.00
2022-11-29T07:47:37.067Z,45.00
2022-11-29T07:48:37.042Z,45.00
2022-11-29T07:49:37.020Z,45.00
2022-11-29T07:50:36.990Z,50.63
2022-11-29T07:51:36.969Z,50.63
2022-11-29T07:52:36.947Z,50.63
2022-11-29T07:53:36.941Z,56.25
2022-11-29T07:54:36.902Z,56.25
2022-11-29T07:55:36.872Z,61.88
2022-11-29T07:56:36.839Z,61.88
2022-11-29T07:57:36.837Z,61.88
2022-11-29T07:58:36.817Z,61.88
2022-11-29T07:59:36.771Z,56.25
2022-11-29T08:00:36.817Z,56.25
2022-11-29T08:01:36.761Z,56.25
2022-11-29T08:02:36.732Z,56.25
2022-11-29T08:03:36.670Z,61.88
2022-11-29T08:04:36.644Z,61.88
2022-11-29T08:05:36.622Z,67.50
2022-11-29T08:06:36.593Z,67.50
2022-11-29T08:07:36.590Z,67.50
2022-11-29T08:08:42.270Z,73.13
2022-11-29T08:09:36.524Z,78.75
2022-11-29T08:10:36.500Z,84.38
2022-11-29T08:11:36.478Z,84.38
2022-11-29T08:12:36.443Z,84.38
2022-11-29T08:13:36.447Z,84.38
2022-11-29T08:14:36.395Z,84.38
2022-11-29T08:15:36.378Z,78.75
2022-11-29T08:16:36.372Z,78.75
2022-11-29T08:17:36.329Z,78.75
2022-11-29T08:18:36.299Z,84.38
2022-11-29T08:19:36.279Z,84.38
2022-11-29T08:20:36.247Z,78.75
2022-11-29T08:21:36.230Z,78.75
2022-11-29T08:22:36.197Z,78.75
2022-11-29T08:23:36.294Z,84.38
2022-11-29T08:24:36.151Z,90.00
2022-11-29T08:25:36.132Z,95.63
2022-11-29T08:26:36.107Z,95.63
2022-11-29T08:27:36.087Z,95.63
2022-11-29T08:28:36.059Z,95.63
2022-11-29T08:29:36.042Z,95.63
2022-11-29T08:30:36.006Z,101.25
2022-11-29T08:31:36.026Z,101.25
2022-11-29T08:32:35.962Z,106.88
2022-11-29T08:33:35.938Z,112.50
2022-11-29T08:34:35.909Z,118.13
2022-11-29T08:35:35.891Z,123.75
2022-11-29T08:36:35.857Z,129.38
2022-11-29T08:37:35.839Z,135.00
2022-11-29T08:38:35.814Z,135.00
2022-11-29T08:39:35.791Z,140.63
2022-11-29T08:40:35.760Z,140.63
2022-11-29T08:41:35.740Z,135.00
2022-11-29T08:42:35.708Z,129.38
2022-11-29T08:43:35.701Z,118.13
2022-11-29T08:44:35.662Z,112.50
2022-11-29T08:45:35.692Z,118.13
2022-11-29T08:46:35.622Z,123.75
2022-11-29T08:47:35.591Z,123.75
2022-11-29T08:48:35.567Z,123.75
2022-11-29T08:49:35.550Z,129.38
2022-11-29T08:50:35.537Z,129.38
2022-11-29T08:51:35.499Z,129.38
2022-11-29T08:52:35.464Z,123.75
2022-11-29T08:53:35.444Z,123.75
2022-11-29T08:54:35.420Z,123.75
2022-11-29T08:55:35.407Z,135.00
2022-11-29T08:57:23.555Z,135.00
2022-11-29T08:57:40.242Z,140.63
2022-11-29T08:58:35.321Z,140.63
2022-11-29T08:59:35.303Z,146.25
2022-11-29T09:00:35.281Z,146.25
2022-11-29T09:01:35.346Z,146.25
2022-11-29T09:02:35.275Z,146.25
2022-11-29T09:03:35.204Z,140.63
2022-11-29T09:04:35.176Z,140.63
2022-11-29T09:05:35.154Z,135.00
2022-11-29T09:06:35.128Z,140.63
2022-11-29T09:07:35.215Z,146.25
2022-11-29T09:08:35.079Z,140.63
2022-11-29T09:09:35.060Z,140.63
2022-11-29T09:10:35.034Z,135.00
2022-11-29T09:11:35.012Z,123.75
2022-11-29T09:12:34.983Z,123.75
2022-11-29T09:13:34.959Z,118.13
2022-11-29T09:14:34.931Z,118.13
2022-11-29T09:15:34.904Z,118.13
2022-11-29T09:16:34.943Z,106.88
2022-11-29T09:17:34.873Z,106.88
2022-11-29T09:18:34.841Z,106.88
2022-11-29T09:19:34.809Z,112.50
2022-11-29T09:20:34.793Z,118.13
2022-11-29T09:21:34.770Z,123.75
2022-11-29T09:22:34.748Z,123.75
2022-11-29T09:23:34.718Z,135.00
2022-11-29T09:24:34.721Z,135.00
2022-11-29T09:25:34.662Z,135.00
2022-11-29T09:26:34.646Z,135.00
2022-11-29T09:27:34.618Z,135.00
2022-11-29T09:28:34.597Z,135.00
2022-11-29T09:29:34.572Z,135.00
2022-11-29T09:30:34.555Z,135.00
2022-11-29T09:31:34.577Z,129.38
2022-11-29T09:32:34.504Z,129.38
2022-11-29T09:33:34.477Z,118.13
2022-11-29T09:34:34.460Z,118.13
2022-11-29T09:35:34.426Z,123.75
2022-11-29T09:36:34.404Z,123.75
2022-11-29T09:37:34.375Z,129.38
2022-11-29T09:38:34.356Z,129.38
2022-11-29T09:39:34.328Z,129.38
2022-11-29T09:40:34.316Z,129.38
2022-11-29T09:41:34.276Z,135.00
2022-11-29T09:42:34.264Z,135.00
2022-11-29T09:43:34.233Z,140.63
2022-11-29T09:44:34.215Z,146.25
2022-11-29T09:45:34.216Z,146.25
2022-11-29T09:46:34.160Z,151.88
2022-11-29T09:47:34.138Z,157.50
2022-11-29T09:48:34.117Z,163.13
2022-11-29T09:49:34.087Z,163.13
2022-11-29T09:50:34.069Z,168.75
2022-11-29T09:51:34.038Z,168.75
2022-11-29T09:52:34.023Z,168.75
2022-11-29T09:53:33.987Z,168.75
2022-11-29T09:54:33.967Z,174.38
2022-11-29T09:55:33.941Z,174.38
2022-11-29T09:56:33.922Z,174.38
2022-11-29T09:57:33.905Z,174.38
2022-11-29T09:58:33.870Z,168.75
2022-11-29T09:59:33.855Z,168.75
2022-11-29T10:00:33.821Z,163.13
2022-11-29T10:01:33.870Z,157.50
2022-11-29T10:02:33.811Z,151.88
2022-11-29T10:03:33.743Z,146.25
2022-11-29T10:04:33.726Z,140.63
2022-11-29T10:05:33.700Z,140.63
2022-11-29T10:06:33.680Z,140.63
2022-11-29T10:07:33.686Z,140.63
2022-11-29T10:08:33.630Z,140.63
2022-11-29T10:09:34.212Z,146.25
2022-11-29T10:10:33.582Z,146.25
2022-11-29T10:11:33.560Z,151.88
2022-11-29T10:12:33.531Z,163.13
2022-11-29T10:13:33.501Z,174.38
2022-11-29T10:14:33.491Z,180.00
2022-11-29T10:15:33.452Z,185.63
2022-11-29T10:16:33.457Z,185.63
2022-11-29T10:17:33.420Z,185.63
2022-11-29T10:18:33.392Z,185.63
2022-11-29T10:19:33.378Z,185.63
2022-11-29T10:20:36.493Z,185.63
2022-11-29T10:21:33.334Z,180.00
2022-11-29T10:22:33.295Z,180.00
2022-11-29T10:23:33.268Z,174.38
2022-11-29T10:24:33.257Z,174.38
2022-11-29T10:25:33.230Z,174.38
2022-11-29T10:26:35.364Z,174.38
2022-11-29T10:27:33.175Z,174.38
2022-11-29T10:28:33.146Z,174.38
2022-11-29T10:29:33.122Z,174.38
2022-11-29T10:30:33.162Z,185.63
2022-11-29T10:31:33.097Z,191.25
2022-11-29T10:32:33.058Z,196.88
2022-11-29T10:33:33.029Z,202.50
2022-11-29T10:34:33.009Z,191.25
2022-11-29T10:35:32.985Z,180.00
2022-11-29T10:36:32.957Z,174.38
2022-11-29T10:37:32.951Z,174.38
2022-11-29T10:38:32.922Z,174.38
2022-11-29T10:39:32.885Z,168.75
2022-11-29T10:40:32.862Z,168.75
2022-11-29T10:41:32.837Z,174.38
2022-11-29T10:42:32.813Z,168.75
2022-11-29T10:43:32.785Z,163.13
2022-11-29T10:44:32.764Z,157.50
2022-11-29T10:45:32.734Z,157.50
2022-11-29T10:46:32.739Z,157.50
2022-11-29T10:47:32.694Z,157.50
2022-11-29T10:48:32.672Z,157.50
2022-11-29T10:49:32.642Z,163.13
2022-11-29T10:50:32.626Z,168.75
2022-11-29T10:51:32.596Z,168.75
2022-11-29T10:52:32.571Z,163.13
2022-11-29T10:53:32.612Z,157.50
2022-11-29T10:54:32.525Z,151.88
2022-11-29T10:55:32.497Z,140.63
2022-11-29T10:56:32.480Z,135.00
2022-11-29T10:57:32.453Z,129.38
2022-11-29T10:58:32.438Z,118.13
2022-11-29T10:59:32.417Z,112.50
2022-11-29T11:00:32.382Z,106.88
2022-11-29T11:01:32.379Z,112.50
2022-11-29T11:02:32.336Z,118.13
2022-11-29T11:03:32.313Z,118.13
2022-11-29T11:04:32.290Z,106.88
2022-11-29T11:05:32.313Z,106.88
2022-11-29T11:06:32.242Z,112.50
2022-11-29T11:07:32.254Z,112.50
2022-11-29T11:08:32.192Z,112.50
2022-11-29T11:09:32.168Z,112.50
2022-11-29T11:10:32.143Z,112.50
2022-11-29T11:11:32.129Z,106.88
2022-11-29T11:12:32.096Z,106.88
2022-11-29T11:13:32.074Z,106.88
2022-11-29T11:14:32.048Z,106.88
2022-11-29T11:15:32.026Z,112.50
2022-11-29T11:16:37.132Z,112.50
2022-11-29T11:17:31.972Z,118.13
2022-11-29T11:18:31.957Z,118.13
2022-11-29T11:19:33.109Z,118.13
2022-11-29T11:20:31.906Z,118.13
2022-11-29T11:21:31.880Z,118.13
2022-11-29T11:22:31.856Z,112.50
2022-11-29T11:23:31.824Z,118.13
2022-11-29T11:24:31.810Z,129.38
2022-11-29T11:25:31.787Z,146.25
2022-11-29T11:26:31.771Z,151.88
2022-11-29T11:27:31.728Z,157.50
2022-11-29T11:28:31.728Z,157.50
2022-11-29T11:29:31.682Z,157.50
2022-11-29T11:30:31.704Z,157.50
2022-11-29T11:31:31.636Z,151.88
2022-11-29T11:32:31.615Z,146.25
2022-11-29T11:33:31.588Z,146.25
2022-11-29T11:34:31.575Z,146.25
2022-11-29T11:35:31.543Z,146.25
2022-11-29T11:36:31.518Z,146.25
2022-11-29T11:37:31.492Z,146.25
2022-11-29T11:38:31.493Z,146.25
2022-11-29T11:39:31.444Z,151.88
2022-11-29T11:40:31.476Z,146.25
2022-11-29T11:41:31.406Z,140.63
2022-11-29T11:42:31.373Z,146.25
2022-11-29T11:43:31.346Z,146.25
2022-11-29T11:44:47.856Z,146.25
2022-11-29T11:45:31.299Z,140.63
2022-11-29T11:46:31.341Z,151.88
2022-11-29T11:47:31.259Z,146.25
2022-11-29T11:48:31.236Z,146.25
2022-11-29T11:49:31.208Z,140.63
2022-11-29T11:50:31.184Z,140.63
2022-11-29T11:51:31.156Z,135.00
2022-11-29T11:52:34.781Z,140.63
2022-11-29T11:53:31.107Z,140.63
2022-11-29T11:54:31.093Z,135.00
2022-11-29T11:55:31.071Z,135.00
2022-11-29T11:56:31.046Z,135.00
2022-11-29T11:57:31.014Z,135.00
2022-11-29T11:58:30.995Z,123.75
2022-11-29T11:59:30.991Z,118.13
2022-11-29T12:01:01.806Z,118.13
2022-11-29T12:01:30.921Z,123.75
2022-11-29T12:02:31.042Z,118.13
2022-11-29T12:03:30.900Z,112.50
2022-11-29T12:04:30.849Z,118.13
2022-11-29T12:05:30.818Z,118.13
2022-11-29T12:06:30.805Z,129.38
2022-11-29T12:08:05.730Z,129.38
2022-11-29T12:08:30.822Z,129.38
2022-11-29T12:09:30.729Z,123.75
2022-11-29T12:10:30.709Z,118.13
2022-11-29T12:11:30.683Z,118.13
2022-11-29T12:12:30.660Z,118.13
2022-11-29T12:13:30.639Z,118.13
2022-11-29T12:14:30.609Z,123.75
2022-11-29T12:15:30.622Z,129.38
2022-11-29T12:16:30.561Z,129.38
2022-11-29T12:17:30.540Z,129.38
2022-11-29T12:18:30.524Z,135.00
2022-11-29T12:19:30.489Z,129.38
2022-11-29T12:20:30.468Z,129.38
2022-11-29T12:21:30.438Z,135.00
2022-11-29T12:22:30.417Z,135.00
2022-11-29T12:23:30.390Z,135.00
2022-11-29T12:24:30.372Z,129.38
2022-11-29T12:25:30.343Z,123.75
2022-11-29T12:26:58.727Z,118.13
2022-11-29T12:27:30.291Z,118.13
2022-11-29T12:28:30.286Z,123.75
2022-11-29T12:29:30.264Z,123.75
2022-11-29T12:30:30.227Z,129.38
2022-11-29T12:31:30.246Z,129.38
2022-11-29T12:32:30.175Z,135.00
2022-11-29T12:33:30.149Z,135.00
2022-11-29T12:34:30.131Z,135.00
2022-11-29T12:35:30.104Z,135.00
2022-11-29T12:36:30.083Z,135.00
2022-11-29T12:37:30.055Z,135.00
2022-11-29T12:38:30.038Z,135.00
2022-11-29T12:39:30.008Z,140.63
2022-11-29T12:40:30.014Z,135.00
2022-11-29T12:41:29.957Z,135.00
2022-11-29T12:42:29.939Z,135.00
2022-11-29T12:43:29.919Z,135.00
2022-11-29T12:44:29.893Z,146.25
2022-11-29T12:45:29.863Z,146.25
2022-11-29T12:46:29.931Z,146.25
2022-11-29T12:47:37.370Z,140.63
2022-11-29T12:48:29.798Z,140.63
2022-11-29T12:49:29.769Z,140.63
2022-11-29T12:50:29.768Z,140.63
2022-11-29T12:51:29.737Z,135.00
2022-11-29T12:52:29.894Z,129.38
2022-11-29T12:53:29.672Z,135.00
2022-11-29T12:54:29.659Z,135.00
2022-11-29T12:55:29.621Z,129.38
2022-11-29T12:56:29.606Z,123.75
2022-11-29T12:57:29.581Z,118.13